Time;durP1;ratioP1;P1;durP2;ratioP2;P2;SDS_P1;SDS_P2;PMS_P1;PMS_P2;Temp;Humidity;BMP_temperature;BMP_pressure;BME280_temperature;BME280_humidity;BME280_pressure;Samples;Min_cycle;Max_cycle;Signal;HPM_P1;HPM_P2
2021/11/10 00:01:53;;;;;;;;;;;;;;;28.96;59.92;100911.72;5002249;28;66365;-38
2021/11/10 00:04:24;;;;;;;;;;;;;;;29.01;60.58;100919.22;4991117;27;71013;-38
2021/11/10 00:06:54;;;;;;;;;;;;;;;29.05;63.79;100924.00;4987208;27;66583;-37
2021/11/10 00:09:27;;;;;;;;;;;;;;;29.08;63.13;100931.69;4993227;27;70399;-37
2021/11/10 00:11:57;;;;;;;;;;;;;;;29.10;63.61;100935.03;4997161;27;66486;-36
2021/11/10 00:14:28;;;;;;;;;;;;;;;29.10;63.78;100940.44;4991105;27;69358;-37
2021/11/10 00:16:59;;;;;;;;;;;;;;;29.14;63.43;100930.03;4994680;27;66172;-36
2021/11/10 00:19:29;;;;;;;;;;;;;;;29.17;66.12;100945.84;4984581;27;70692;-36
2021/11/10 00:22:00;;;;;;;;;;;;;;;29.28;67.62;100939.81;5015023;27;66411;-37
2021/11/10 00:24:31;;;;;;;;;;;;;;;29.30;68.20;100943.13;5044423;27;69569;-38
2021/11/10 00:27:03;;;;;;;;;;;;;;;29.26;67.91;100955.41;5021793;27;65690;-38
2021/11/10 00:29:49;;;;;;;;;;;;;;;29.28;66.21;100956.03;4995359;27;70528;-36
2021/11/10 00:32:25;;;;;;;;;;;;;;;29.32;64.14;100961.84;4990857;28;67035;-37
2021/11/10 00:35:03;;;;;;;;;;;;;;;29.35;63.32;100975.75;4970307;28;69211;-37
2021/11/10 00:38:02;;;;;;;;;;;;;;;29.40;63.12;100975.97;4976797;28;66287;-36
2021/11/10 00:40:54;;;;;;;;;;;;;;;29.46;62.52;100970.78;4999763;27;69915;-37
2021/11/10 00:43:45;;;;;;;;;;;;;;;29.49;62.66;100975.75;4973264;28;65942;-36
2021/11/10 00:46:26;;;;;;;;;;;;;;;29.53;61.91;100977.00;5007300;27;69976;-36
2021/11/10 00:49:20;;;;;;;;;;;;;;;29.56;62.32;100977.44;5005201;28;66527;-36
2021/11/10 00:52:12;;;;;;;;;;;;;;;29.59;62.16;100976.19;4980185;28;69881;-37
2021/11/10 00:55:01;;;;;;;;;;;;;;;29.61;61.95;100976.78;4966466;28;67386;-36
2021/11/10 00:57:40;;;;;;;;;;;;;;;29.63;61.53;100972.03;4982016;28;69046;-35
2021/11/10 01:00:41;;;;;;;;;;;;;;;29.66;61.93;100977.03;4989499;27;66675;-36
2021/11/10 01:03:31;;;;;;;;;;;;;;;29.67;61.60;100967.88;4986581;28;70286;-36
2021/11/10 01:06:34;;;;;;;;;;;;;;;29.68;61.20;100974.94;4978939;28;65319;-35
2021/11/10 01:09:18;;;;;;;;;;;;;;;29.71;61.21;100974.53;5049811;27;70553;-35
2021/11/10 01:12:17;;;;;;;;;;;;;;;29.72;61.18;100970.78;4991982;28;66265;-36
2021/11/10 01:15:15;;;;;;;;;;;;;;;29.73;61.09;100977.84;4986173;28;69472;-36
2021/11/10 01:18:26;;;;;;;;;;;;;;;29.62;60.86;100959.53;4995028;28;66258;-36
2021/11/10 01:21:20;;;;;;;;;;;;;;;29.78;61.29;100986.19;4992567;27;69343;-36
2021/11/10 01:24:16;;;;;;;;;;;;;;;29.80;61.00;100992.19;4990276;28;65699;-36
2021/11/10 01:27:17;;;;;;;;;;;;;;;29.80;61.21;100984.06;4992513;28;69985;-36
2021/11/10 01:30:27;;;;;;;;;;;;;;;29.83;61.26;100989.06;4993142;27;66169;-36
2021/11/10 01:33:10;;;;;;;;;;;;;;;29.86;61.10;100986.97;4991479;27;70615;-38
2021/11/10 01:35:59;;;;;;;;;;;;;;;29.88;60.86;100995.72;4980203;28;66030;-36
2021/11/10 01:38:55;;;;;;;;;;;;;;;29.90;61.24;100988.22;4989718;28;69755;-36
2021/11/10 01:41:47;;;;;;;;;;;;;;;29.93;61.16;100982.41;4986248;28;66634;-36
2021/11/10 01:44:26;;;;;;;;;;;;;;;29.93;60.95;100980.53;4983177;28;69259;-35
2021/11/10 01:47:13;;;;;;;;;;;;;;;29.96;60.69;100982.81;4986486;27;65784;-35
2021/11/10 01:50:12;;;;;;;;;;;;;;;29.98;60.57;100969.91;4984501;28;70156;-35
2021/11/10 01:53:09;;;;;;;;;;;;;;;30.01;60.75;100963.25;4986180;27;66253;-35
2021/11/10 01:55:57;;;;;;;;;;;;;;;30.03;60.73;100958.44;4973533;27;71267;-36
2021/11/10 01:58:51;;;;;;;;;;;;;;;30.05;61.14;100954.47;4974800;28;67468;-36
2021/11/10 02:01:46;;;;;;;;;;;;;;;30.06;60.71;100950.75;4974896;28;69992;-35
2021/11/10 02:04:35;;;;;;;;;;;;;;;30.09;61.18;100954.91;4983746;28;66901;-36
2021/11/10 02:07:35;;;;;;;;;;;;;;;30.11;61.25;100960.91;4968353;28;70235;-36
2021/11/10 02:10:17;;;;;;;;;;;;;;;30.13;61.11;100958.81;4986620;28;66296;-36
2021/11/10 02:13:13;;;;;;;;;;;;;;;30.14;61.34;100952.34;4995358;27;69961;-35
2021/11/10 02:16:04;;;;;;;;;;;;;;;30.16;60.88;100952.97;4991628;28;66792;-36
2021/11/10 02:19:07;;;;;;;;;;;;;;;30.20;61.48;100951.53;4987423;27;70499;-36
2021/11/10 02:22:15;;;;;;;;;;;;;;;30.22;60.90;100952.16;4971035;28;65637;-36
2021/11/10 02:25:05;;;;;;;;;;;;;;;30.25;61.37;100942.78;4984481;28;70353;-36
2021/11/10 02:27:51;;;;;;;;;;;;;;;30.27;60.81;100951.50;4990968;28;65942;-36
2021/11/10 02:31:06;;;;;;;;;;;;;;;30.28;60.96;100956.72;5004432;27;43742;-38
2021/11/10 02:33:50;;;;;;;;;;;;;;;30.33;60.87;100960.66;4989288;27;70530;-40
2021/11/10 02:36:48;;;;;;;;;;;;;;;30.35;61.26;100953.97;5092864;27;65992;-40
2021/11/10 02:40:36;;;;;;;;;;;;;;;30.38;60.63;100941.91;4999478;28;69960;-37
2021/11/10 02:47:22;;;;;;;;;;;;;;;30.44;60.84;100935.63;5025641;27;71094;-37
2021/11/10 02:50:04;;;;;;;;;;;;;;;30.46;60.22;100934.34;5004025;28;66811;-35
2021/11/10 02:52:53;;;;;;;;;;;;;;;30.49;60.74;100935.81;5004629;28;70143;-35
2021/11/10 02:55:38;;;;;;;;;;;;;;;30.52;60.06;100943.50;5096047;27;66785;-36
2021/11/10 02:58:26;;;;;;;;;;;;;;;30.55;60.51;100937.63;5013182;27;69524;-36
2021/11/10 03:01:22;;;;;;;;;;;;;;;30.57;59.95;100938.25;5008514;28;66774;-36
2021/11/10 03:04:25;;;;;;;;;;;;;;;30.61;60.15;100934.06;5076015;27;69748;-36
2021/11/10 03:07:08;;;;;;;;;;;;;;;30.64;59.80;100935.50;5065627;27;67519;-35
2021/11/10 03:09:55;;;;;;;;;;;;;;;30.66;60.25;100934.22;5074819;27;68532;-35
2021/11/10 03:12:50;;;;;;;;;;;;;;;30.69;59.90;100941.91;5009440;27;66406;-36
2021/11/10 03:15:37;;;;;;;;;;;;;;;30.72;60.38;100935.25;4948413;28;70490;-36
2021/11/10 03:18:48;;;;;;;;;;;;;;;30.77;60.22;100940.00;4977771;28;65432;-36
2021/11/10 03:21:27;;;;;;;;;;;;;;;30.79;59.80;100932.50;5071689;27;70449;-36
2021/11/10 03:24:05;;;;;;;;;;;;;;;30.82;60.40;100932.09;4981882;27;65865;-36
2021/11/10 03:26:50;;;;;;;;;;;;;;;30.86;60.25;100933.31;4982026;28;69422;-36
2021/11/10 03:29:32;;;;;;;;;;;;;;;30.87;60.21;100926.84;4988075;27;66971;-36
2021/11/10 03:32:19;;;;;;;;;;;;;;;30.90;60.14;100923.72;5006885;27;69466;-36
2021/11/10 03:34:51;;;;;;;;;;;;;;;30.92;60.10;100913.47;5071759;27;66169;-36
2021/11/10 03:37:31;;;;;;;;;;;;;;;30.95;59.77;100915.72;4986293;27;69894;-36
2021/11/10 03:40:07;;;;;;;;;;;;;;;30.99;60.33;100913.44;4980517;28;66569;-35
2021/11/10 03:42:43;;;;;;;;;;;;;;;31.01;59.68;100905.91;4968831;28;70165;-36
2021/11/10 03:45:26;;;;;;;;;;;;;;;31.03;59.72;100906.50;4982602;28;66384;-36
2021/11/10 03:48:04;;;;;;;;;;;;;;;30.92;60.03;100883.66;4970108;28;69698;-36
2021/11/10 03:50:35;;;;;;;;;;;;;;;31.07;59.43;100903.16;4987897;28;66277;-36
2021/11/10 03:53:06;;;;;;;;;;;;;;;31.10;60.02;100891.88;4969635;28;70896;-36
2021/11/10 03:55:37;;;;;;;;;;;;;;;31.12;59.63;100884.34;4978336;28;66638;-36
2021/11/10 03:58:09;;;;;;;;;;;;;;;31.14;59.87;100876.81;4968815;28;69816;-36
2021/11/10 04:00:47;;;;;;;;;;;;;;;31.16;59.81;100882.84;4967443;28;66325;-37
2021/11/10 04:03:18;;;;;;;;;;;;;;;31.19;59.31;100878.88;4965957;28;70848;-36
2021/11/10 04:05:52;;;;;;;;;;;;;;;31.22;59.56;100875.72;4970375;28;66498;-36
2021/11/10 04:08:23;;;;;;;;;;;;;;;31.25;59.41;100869.84;4969507;28;69622;-36
2021/11/10 04:10:59;;;;;;;;;;;;;;;31.28;59.79;100865.84;4970470;28;65814;-36
2021/11/10 04:13:33;;;;;;;;;;;;;;;31.31;59.48;100859.97;4971262;28;69272;-35
2021/11/10 04:16:04;;;;;;;;;;;;;;;31.34;59.66;100854.09;4969740;28;65692;-35
2021/11/10 04:18:35;;;;;;;;;;;;;;;31.37;59.48;100842.84;5051613;27;69581;-35
2021/11/10 04:21:19;;;;;;;;;;;;;;;31.39;59.47;100838.88;4962035;28;66287;-37
2021/11/10 04:23:53;;;;;;;;;;;;;;;31.43;59.27;100828.41;4974444;28;71238;-35
2021/11/10 04:26:30;;;;;;;;;;;;;;;31.45;59.66;100834.41;4972701;28;65395;-35
2021/11/10 04:29:02;;;;;;;;;;;;;;;31.49;59.46;100824.81;4970902;28;69997;-35
2021/11/10 04:31:33;;;;;;;;;;;;;;;31.51;59.26;100821.84;4983547;27;66234;-36
2021/11/10 04:34:05;;;;;;;;;;;;;;;31.52;59.09;100821.63;4963665;28;69513;-36
2021/11/10 04:36:38;;;;;;;;;;;;;;;31.55;58.95;100807.63;5044788;27;66545;-35
2021/11/10 04:39:08;;;;;;;;;;;;;;;31.59;58.98;100814.25;4968313;28;69156;-36
2021/11/10 04:41:39;;;;;;;;;;;;;;;31.61;58.60;100808.59;4966543;28;65871;-36
2021/11/10 04:44:13;;;;;;;;;;;;;;;31.63;58.67;100800.25;5060847;27;69819;-35
2021/11/10 04:46:45;;;;;;;;;;;;;;;31.66;58.44;100791.66;4965804;28;66371;-36
2021/11/10 04:49:17;;;;;;;;;;;;;;;31.69;58.63;100791.19;4968581;28;69777;-35
2021/11/10 04:51:47;;;;;;;;;;;;;;;31.71;58.36;100784.50;4968281;28;66119;-35
2021/11/10 04:54:19;;;;;;;;;;;;;;;31.72;58.59;100780.72;5068428;27;69895;-35
2021/11/10 04:56:50;;;;;;;;;;;;;;;31.74;58.32;100772.38;5069045;27;66346;-36
2021/11/10 04:59:20;;;;;;;;;;;;;;;31.75;58.52;100760.44;4973163;28;69431;-36
2021/11/10 05:02:37;;;;;;;;;;;;;;;31.76;58.32;100760.22;4966062;28;66349;-35
2021/11/10 05:04:43;;;;;;;;;;;;;;;31.78;58.37;100751.84;4976593;28;70206;-37
2021/11/10 05:07:15;;;;;;;;;;;;;;;31.80;58.50;100741.59;4969928;28;66411;-35
2021/11/10 05:09:47;;;;;;;;;;;;;;;31.81;58.23;100743.25;4972025;28;70106;-35
2021/11/10 05:12:18;;;;;;;;;;;;;;;31.85;58.22;100735.50;4971603;28;66396;-35
2021/11/10 05:14:56;;;;;;;;;;;;;;;31.85;58.52;100735.50;4970894;28;69183;-36
2021/11/10 05:17:27;;;;;;;;;;;;;;;31.87;58.37;100739.59;4974713;28;65596;-36
2021/11/10 05:19:57;;;;;;;;;;;;;;;31.89;58.63;100732.06;5068454;27;70061;-36
2021/11/10 05:22:46;;;;;;;;;;;;;;;31.92;58.04;100719.97;4956406;28;65409;-36
2021/11/10 05:25:18;;;;;;;;;;;;;;;31.94;58.49;100718.69;4964785;28;69110;-36
2021/11/10 05:27:49;;;;;;;;;;;;;;;31.96;58.33;100719.28;4965997;28;67228;-36
2021/11/10 05:30:19;;;;;;;;;;;;;;;31.86;58.83;100708.13;5049039;27;68953;-36
2021/11/10 05:32:50;;;;;;;;;;;;;;;31.56;57.71;100700.81;5062764;27;66117;-36
2021/11/10 05:35:20;;;;;;;;;;;;;;;31.35;56.59;100693.16;5047433;28;70091;-36
2021/11/10 05:37:51;;;;;;;;;;;;;;;31.15;55.45;100694.25;5063087;27;66520;-36
2021/11/10 05:40:21;;;;;;;;;;;;;;;31.03;54.86;100693.31;5054629;28;69941;-35
2021/11/10 05:42:51;;;;;;;;;;;;;;;30.90;54.54;100685.38;5064200;27;66820;-37
2021/11/10 05:45:22;;;;;;;;;;;;;;;30.81;53.30;100686.69;5070905;27;70170;-37
2021/11/10 05:47:52;;;;;;;;;;;;;;;30.71;52.62;100690.72;5048933;28;65495;-36
2021/11/10 05:50:23;;;;;;;;;;;;;;;30.64;52.19;100678.28;5040120;27;69905;-36
2021/11/10 05:52:55;;;;;;;;;;;;;;;30.59;51.26;100676.28;5060016;27;66880;-36
2021/11/10 05:55:26;;;;;;;;;;;;;;;30.54;51.03;100681.53;5071939;27;70029;-36
2021/11/10 05:57:56;;;;;;;;;;;;;;;30.51;50.34;100676.56;5072220;27;66248;-36
2021/11/10 06:00:27;;;;;;;;;;;;;;;30.44;50.36;100682.03;5049239;27;69443;-35
2021/11/10 06:02:57;;;;;;;;;;;;;;;30.37;50.04;100680.41;5065907;27;66524;-36
2021/11/10 06:05:28;;;;;;;;;;;;;;;30.34;49.53;100675.44;5064316;27;70115;-36
2021/11/10 06:07:58;;;;;;;;;;;;;;;30.29;49.39;100665.31;5073277;27;66636;-36
2021/11/10 06:10:29;;;;;;;;;;;;;;;30.30;48.62;100666.13;5060215;27;69803;-36
2021/11/10 06:12:59;;;;;;;;;;;;;;;30.23;48.15;100652.69;5059902;27;66612;-35
2021/11/10 06:15:30;;;;;;;;;;;;;;;30.22;47.98;100651.81;5070517;27;69097;-35
2021/11/10 06:18:02;;;;;;;;;;;;;;;30.20;47.72;100653.91;5051270;28;65651;-35
2021/11/10 06:20:34;;;;;;;;;;;;;;;30.18;47.32;100645.19;5064251;27;69762;-35
2021/11/10 06:23:04;;;;;;;;;;;;;;;30.17;47.34;100643.53;5076078;27;66813;-36
2021/11/10 06:25:37;;;;;;;;;;;;;;;30.19;47.13;100640.59;5065535;27;70469;-35
2021/11/10 06:28:07;;;;;;;;;;;;;;;30.15;46.64;100623.97;5060672;27;65834;-35
2021/11/10 06:30:38;;;;;;;;;;;;;;;30.16;46.44;100614.81;5045539;27;69253;-36
2021/11/10 06:33:09;;;;;;;;;;;;;;;30.19;46.99;100619.78;4964047;28;65911;-35
2021/11/10 06:35:39;;;;;;;;;;;;;;;30.50;49.28;100620.75;4979641;28;70772;-35
2021/11/10 06:38:09;;;;;;;;;;;;;;;30.74;52.29;100616.34;4980781;28;66562;-35
2021/11/10 06:40:40;;;;;;;;;;;;;;;30.98;54.06;100611.94;4965711;28;69917;-36
2021/11/10 06:43:11;;;;;;;;;;;;;;;31.13;55.60;100597.97;4966319;28;66242;-35
2021/11/10 06:45:41;;;;;;;;;;;;;;;31.33;55.87;100603.94;4967493;28;68981;-36
2021/11/10 06:48:15;;;;;;;;;;;;;;;31.44;57.14;100599.66;4962864;28;66240;-36
2021/11/10 06:50:45;;;;;;;;;;;;;;;31.59;57.74;100596.50;4967928;28;68996;-36
2021/11/10 06:53:17;;;;;;;;;;;;;;;31.68;57.41;100600.56;4968719;27;66047;-35
2021/11/10 06:55:47;;;;;;;;;;;;;;;31.77;58.17;100603.75;4963859;28;70425;-35
2021/11/10 06:58:19;;;;;;;;;;;;;;;31.84;58.34;100593.59;4969896;27;66493;-36
2021/11/10 07:00:53;;;;;;;;;;;;;;;31.90;58.55;100592.69;4980587;28;69961;-36
2021/11/10 07:03:30;;;;;;;;;;;;;;;31.97;58.79;100593.41;4977938;28;65608;-36
2021/11/10 07:06:06;;;;;;;;;;;;;;;32.04;58.50;100588.72;4962673;28;70421;-36
2021/11/10 07:08:47;;;;;;;;;;;;;;;32.09;58.97;100589.88;4963396;28;65516;-36
2021/11/10 07:11:23;;;;;;;;;;;;;;;32.15;58.75;100595.22;4963655;28;70075;-36
2021/11/10 07:14:18;;;;;;;;;;;;;;;32.19;58.57;100584.72;4964945;28;66135;-37
2021/11/10 07:17:10;;;;;;;;;;;;;;;32.26;59.07;100585.41;4970624;28;70159;-36
2021/11/10 07:19:53;;;;;;;;;;;;;;;32.31;58.83;100582.81;5057965;27;66649;-35
2021/11/10 07:22:28;;;;;;;;;;;;;;;32.37;58.51;100581.03;4967727;28;69881;-35
2021/11/10 07:25:14;;;;;;;;;;;;;;;32.40;58.54;100581.41;4981576;28;65483;-36
2021/11/10 07:28:08;;;;;;;;;;;;;;;32.43;58.54;100567.34;4972543;28;70048;-35
2021/11/10 07:30:59;;;;;;;;;;;;;;;32.50;58.64;100564.53;4968355;28;66674;-36
2021/11/10 07:33:35;;;;;;;;;;;;;;;32.54;58.82;100562.13;4972477;28;69341;-36
2021/11/10 07:36:13;;;;;;;;;;;;;;;32.56;58.53;100558.13;4956100;28;66489;-35
2021/11/10 07:39:17;;;;;;;;;;;;;;;32.61;58.42;100554.69;4957222;28;69981;-36
2021/11/10 07:41:53;;;;;;;;;;;;;;;32.64;58.97;100543.34;4978391;27;66056;-35
2021/11/10 07:44:46;;;;;;;;;;;;;;;32.68;58.56;100544.50;4958908;28;69041;-35
2021/11/10 07:47:39;;;;;;;;;;;;;;;32.71;58.36;100544.06;4967205;28;66737;-36
2021/11/10 07:50:29;;;;;;;;;;;;;;;32.75;58.21;100539.78;5054776;27;68904;-36
2021/11/10 07:53:28;;;;;;;;;;;;;;;32.82;58.22;100543.19;5029850;27;66512;-36
2021/11/10 07:56:19;;;;;;;;;;;;;;;32.73;58.07;100520.16;4962856;28;70000;-35
2021/11/10 07:59:09;;;;;;;;;;;;;;;32.89;58.12;100541.13;4974320;28;67053;-36
2021/11/10 08:01:51;;;;;;;;;;;;;;;32.93;57.83;100545.03;4971713;28;70184;-37
2021/11/10 08:04:34;;;;;;;;;;;;;;;32.94;58.08;100549.41;4974634;28;67109;-37
2021/11/10 08:07:45;;;;;;;;;;;;;;;32.99;58.02;100550.53;4970290;28;70550;-36
2021/11/10 08:10:59;;;;;;;;;;;;;;;33.00;58.33;100558.50;5116834;27;44666;-38
2021/11/10 08:13:54;;;;;;;;;;;;;;;33.04;57.93;100564.25;5096728;27;70373;-40
2021/11/10 08:16:56;;;;;;;;;;;;;;;33.05;57.80;100561.31;5074010;27;66682;-38
2021/11/10 08:19:31;;;;;;;;;;;;;;;33.08;57.78;100562.72;5091498;27;69778;-37
2021/11/10 08:22:13;;;;;;;;;;;;;;;33.09;57.81;100562.47;5083652;27;66145;-39
2021/11/10 08:24:50;;;;;;;;;;;;;;;33.11;57.61;100567.66;5098899;27;70309;-37
2021/11/10 08:27:33;;;;;;;;;;;;;;;33.12;57.64;100570.13;5084116;27;66892;-38
2021/11/10 08:30:08;;;;;;;;;;;;;;;33.15;57.74;100560.66;5094208;27;69905;-37
2021/11/10 08:32:52;;;;;;;;;;;;;;;33.15;57.79;100563.38;5085592;27;66163;-38
2021/11/10 08:35:49;;;;;;;;;;;;;;;33.17;57.75;100558.53;5088662;27;69313;-35
2021/11/10 08:38:26;;;;;;;;;;;;;;;33.19;58.00;100555.59;5077048;27;65984;-36
2021/11/10 08:41:00;;;;;;;;;;;;;;;33.19;57.77;100550.97;5080059;27;69291;-36
2021/11/10 08:43:34;;;;;;;;;;;;;;;33.20;57.71;100552.63;5083008;27;66838;-36
2021/11/10 08:46:08;;;;;;;;;;;;;;;33.21;57.89;100554.28;5035463;27;70238;-36
2021/11/10 08:48:44;;;;;;;;;;;;;;;33.22;57.84;100545.03;5084185;27;66156;-36
2021/11/10 08:51:26;;;;;;;;;;;;;;;33.09;57.83;100526.31;5072307;27;70333;-35
2021/11/10 08:53:58;;;;;;;;;;;;;;;33.25;57.70;100558.16;5079116;27;65734;-36
2021/11/10 08:56:36;;;;;;;;;;;;;;;33.27;57.74;100550.59;5069840;27;69318;-36
2021/11/10 08:59:18;;;;;;;;;;;;;;;33.27;57.85;100556.03;5039701;27;66277;-36
2021/11/10 09:01:54;;;;;;;;;;;;;;;33.28;57.79;100560.38;5083887;27;70146;-36
2021/11/10 09:04:25;;;;;;;;;;;;;;;33.29;57.73;100555.75;5079546;27;65771;-36
2021/11/10 09:07:00;;;;;;;;;;;;;;;33.30;57.88;100547.38;5074507;27;69981;-36
2021/11/10 09:10:26;;;;;;;;;;;;;;;33.31;57.81;100548.19;5075748;27;65433;-36
2021/11/10 09:12:38;;;;;;;;;;;;;;;33.30;57.89;100558.25;5070716;27;70620;-36
2021/11/10 09:15:16;;;;;;;;;;;;;;;33.31;57.65;100562.59;5078607;27;65630;-36
2021/11/10 09:17:54;;;;;;;;;;;;;;;33.30;57.96;100563.69;5076160;27;70089;-36
2021/11/10 09:20:29;;;;;;;;;;;;;;;33.31;58.02;100568.03;5073975;27;65750;-36
2021/11/10 09:23:02;;;;;;;;;;;;;;;33.31;57.80;100581.63;5064676;28;70077;-36
2021/11/10 09:25:37;;;;;;;;;;;;;;;33.31;58.04;100572.66;5065397;28;65718;-36
2021/11/10 09:28:14;;;;;;;;;;;;;;;33.32;58.19;100579.72;5061133;28;70391;-37
2021/11/10 09:30:50;;;;;;;;;;;;;;;33.31;58.22;100587.06;5061802;28;67018;-36
2021/11/10 09:33:21;;;;;;;;;;;;;;;33.30;58.34;100590.88;5066004;27;70250;-36
2021/11/10 09:35:53;;;;;;;;;;;;;;;33.29;58.08;100591.94;5039213;28;66288;-36
2021/11/10 09:38:25;;;;;;;;;;;;;;;33.28;57.91;100593.00;5064521;27;70259;-36
2021/11/10 09:40:59;;;;;;;;;;;;;;;33.29;58.16;100602.81;5067042;28;66298;-37
2021/11/10 09:43:42;;;;;;;;;;;;;;;33.30;58.13;100607.19;5072237;27;69968;-35
2021/11/10 09:46:20;;;;;;;;;;;;;;;33.29;58.24;100600.09;5065210;27;65988;-36
2021/11/10 09:48:52;;;;;;;;;;;;;;;33.29;58.08;100599.25;5080615;27;69257;-36
2021/11/10 09:51:23;;;;;;;;;;;;;;;33.28;58.01;100601.16;5074503;27;66497;-36
2021/11/10 09:53:54;;;;;;;;;;;;;;;33.28;58.02;100608.47;5073600;27;70118;-36
2021/11/10 09:56:25;;;;;;;;;;;;;;;33.28;58.10;100613.91;5072650;27;67043;-36
2021/11/10 09:58:56;;;;;;;;;;;;;;;33.28;58.25;100608.47;5077191;27;70233;-36
2021/11/10 10:01:27;;;;;;;;;;;;;;;33.28;58.68;100608.47;5075247;27;67240;-36
2021/11/10 10:03:57;;;;;;;;;;;;;;;33.27;58.38;100606.84;5080452;27;69827;-36
2021/11/10 10:06:29;;;;;;;;;;;;;;;33.25;58.43;100609.78;5077262;27;66813;-36
2021/11/10 10:09:00;;;;;;;;;;;;;;;33.25;58.45;100614.41;5081849;27;69161;-35
2021/11/10 10:11:30;;;;;;;;;;;;;;;33.23;58.62;100617.34;5092719;27;66401;-36
2021/11/10 10:14:01;;;;;;;;;;;;;;;33.25;58.68;100626.09;5096637;27;70383;-38
2021/11/10 10:16:35;;;;;;;;;;;;;;;33.24;58.70;100626.34;5092612;27;66885;-36
2021/11/10 10:19:06;;;;;;;;;;;;;;;33.21;58.75;100634.97;5093208;27;69852;-36
2021/11/10 10:21:43;;;;;;;;;;;;;;;33.21;58.95;100627.66;5090250;27;65785;-36
2021/11/10 10:24:15;;;;;;;;;;;;;;;33.06;59.06;100617.31;5103476;27;70485;-37
2021/11/10 10:26:45;;;;;;;;;;;;;;;33.19;58.91;100648.81;5079084;27;65844;-36
2021/11/10 10:29:17;;;;;;;;;;;;;;;33.18;59.19;100652.59;5063764;27;69882;-36
2021/11/10 10:32:12;;;;;;;;;;;;;;;33.17;59.27;100650.13;5046106;27;66702;-36
2021/11/10 10:34:43;;;;;;;;;;;;;;;33.13;59.52;100650.63;5076511;27;69111;-36
2021/11/10 10:37:33;;;;;;;;;;;;;;;33.14;59.64;100643.28;5089312;27;66568;-36
2021/11/10 10:40:14;;;;;;;;;;;;;;;33.16;59.35;100654.75;5082120;27;70430;-36
2021/11/10 10:42:44;;;;;;;;;;;;;;;33.12;59.34;100648.94;5095002;27;66348;-36
2021/11/10 10:45:31;;;;;;;;;;;;;;;33.13;59.47;100655.22;5072171;27;70175;-37
2021/11/10 10:48:05;;;;;;;;;;;;;;;33.13;59.36;100647.06;5089856;27;66387;-36
2021/11/10 10:50:40;;;;;;;;;;;;;;;33.13;59.72;100660.66;5089729;27;69248;-37
2021/11/10 10:53:12;;;;;;;;;;;;;;;33.07;59.92;100650.72;5087932;27;66692;-37
2021/11/10 10:55:44;;;;;;;;;;;;;;;33.13;60.18;100660.66;5098480;27;69442;-37
2021/11/10 10:58:34;;;;;;;;;;;;;;;33.10;60.10;100667.41;5103366;27;65466;-35
2021/11/10 11:01:47;;;;;;;;;;;;;;;33.10;60.09;100675.56;5087183;27;70221;-36
2021/11/10 11:04:28;;;;;;;;;;;;;;;33.09;60.08;100670.34;5014518;28;65492;-36
2021/11/10 11:07:03;;;;;;;;;;;;;;;33.07;59.40;100678.75;5007838;28;69413;-36
2021/11/10 11:09:40;;;;;;;;;;;;;;;33.07;59.15;100683.34;5045489;27;66074;-38
2021/11/10 11:15:05;;;;;;;;;;;;;;;33.04;59.95;100673.81;5092172;27;65632;-36
2021/11/10 11:17:36;;;;;;;;;;;;;;;33.05;60.02;100674.63;5088974;27;70629;-36
2021/11/10 11:20:06;;;;;;;;;;;;;;;33.05;60.12;100693.66;5086896;27;65714;-36
2021/11/10 11:22:44;;;;;;;;;;;;;;;33.04;60.58;100697.41;5071237;27;67905;-37
2021/11/10 11:25:14;;;;;;;;;;;;;;;33.01;60.74;100695.19;5055597;27;65434;-36
2021/11/10 11:28:03;;;;;;;;;;;;;;;33.01;60.25;100693.28;5071876;27;69768;-36
2021/11/10 11:30:36;;;;;;;;;;;;;;;33.00;60.53;100705.22;5091689;27;66642;-37
2021/11/10 11:33:11;;;;;;;;;;;;;;;33.00;60.61;100715.28;5085426;27;69171;-37
2021/11/10 11:35:42;;;;;;;;;;;;;;;32.97;61.31;100718.44;5088458;27;65393;-38
2021/11/10 11:38:17;;;;;;;;;;;;;;;32.94;60.93;100722.47;5076967;27;69929;-38
2021/11/10 11:40:52;;;;;;;;;;;;;;;32.95;61.02;100729.53;5084044;27;66510;-37
2021/11/10 11:43:26;;;;;;;;;;;;;;;32.93;61.19;100721.63;5078865;27;69814;-37
2021/11/10 11:46:03;;;;;;;;;;;;;;;32.92;61.30;100730.84;5067728;27;66915;-36
2021/11/10 11:48:33;;;;;;;;;;;;;;;32.90;61.54;100740.28;5082332;27;69208;-36
2021/11/10 11:51:06;;;;;;;;;;;;;;;32.88;62.15;100745.16;5083233;27;66517;-37
2021/11/10 11:53:39;;;;;;;;;;;;;;;32.88;61.97;100740.53;5082632;27;69247;-37
2021/11/10 11:56:15;;;;;;;;;;;;;;;32.86;61.65;100753.53;5081931;27;65892;-36
2021/11/10 11:58:50;;;;;;;;;;;;;;;32.84;61.89;100754.81;5057670;27;70485;-37
2021/11/10 12:01:25;;;;;;;;;;;;;;;32.82;61.98;100760.50;5065045;27;66473;-37
2021/11/10 12:04:07;;;;;;;;;;;;;;;32.72;63.14;100757.56;5073126;27;68549;-37
2021/11/10 12:06:45;;;;;;;;;;;;;;;32.41;62.35;100767.66;5079825;27;65719;-37
2021/11/10 12:09:21;;;;;;;;;;;;;;;32.15;61.85;100773.47;5067411;27;69501;-38
2021/11/10 12:12:11;;;;;;;;;;;;;;;31.87;61.91;100782.19;5045189;27;65330;-36
2021/11/10 12:14:58;;;;;;;;;;;;;;;31.68;62.50;100794.94;5063100;27;70142;-36
2021/11/10 12:17:32;;;;;;;;;;;;;;;31.46;63.13;100809.00;5080509;27;65443;-37
2021/11/10 12:20:11;;;;;;;;;;;;;;;31.31;63.65;100811.19;5091140;27;69950;-37
2021/11/10 12:22:55;;;;;;;;;;;;;;;30.86;64.10;100770.81;5060437;27;66345;-40
2021/11/10 12:25:30;;;;;;;;;;;;;;;30.99;64.61;100818.63;5075359;27;69151;-36
2021/11/10 12:28:02;;;;;;;;;;;;;;;30.85;64.64;100812.50;5091627;27;66814;-37
2021/11/10 12:30:43;;;;;;;;;;;;;;;30.76;64.41;100808.34;5090409;27;70170;-36
2021/11/10 12:33:31;;;;;;;;;;;;;;;30.66;64.67;100814.28;5073620;27;67411;-37
2021/11/10 12:36:07;;;;;;;;;;;;;;;30.57;65.08;100821.84;5076894;27;70338;-36
2021/11/10 12:38:42;;;;;;;;;;;;;;;30.50;64.49;100827.28;5050260;27;66206;-37
2021/11/10 12:41:18;;;;;;;;;;;;;;;30.40;64.68;100810.72;5071416;27;69765;-36
2021/11/10 12:43:49;;;;;;;;;;;;;;;30.34;63.54;100810.75;5089357;27;67882;-37
2021/11/10 12:46:21;;;;;;;;;;;;;;;30.25;64.10;100824.53;5089041;27;70258;-37
2021/11/10 12:49:15;;;;;;;;;;;;;;;30.22;64.07;100830.38;5066318;27;66352;-37
2021/11/10 12:52:12;;;;;;;;;;;;;;;30.14;64.67;100848.72;5088446;27;70185;-37
2021/11/10 12:55:31;;;;;;;;;;;;;;;30.08;64.23;100861.25;5079537;27;65910;-36
2021/11/10 12:58:17;;;;;;;;;;;;;;;30.02;63.79;100878.34;5070401;27;70106;-37
2021/11/10 13:01:11;;;;;;;;;;;;;;;29.97;63.19;100895.19;5070265;27;66737;-37
2021/11/10 13:04:00;;;;;;;;;;;;;;;29.91;63.35;100908.75;5091680;27;69973;-38
2021/11/10 13:06:50;;;;;;;;;;;;;;;29.86;62.36;100908.56;5073493;27;65291;-38
2021/11/10 13:09:38;;;;;;;;;;;;;;;29.81;62.02;100914.59;5088195;27;70113;-36
2021/11/10 13:12:31;;;;;;;;;;;;;;;29.75;62.58;100924.38;5088974;27;65705;-40
2021/11/10 13:15:21;;;;;;;;;;;;;;;29.74;62.80;100924.59;5089982;27;69180;-39
2021/11/10 13:18:14;;;;;;;;;;;;;;;29.70;62.34;100929.63;5081692;27;66616;-39
2021/11/10 13:21:02;;;;;;;;;;;;;;;29.67;63.09;100940.00;5082176;27;70819;-39
2021/11/10 13:24:10;;;;;;;;;;;;;;;29.67;62.56;100946.25;5070880;27;66624;-38
2021/11/10 13:26:54;;;;;;;;;;;;;;;29.66;62.18;100951.88;5089856;27;69299;-40
2021/11/10 13:29:56;;;;;;;;;;;;;;;29.63;62.44;100950.41;5091491;27;66571;-39
2021/11/10 13:32:29;;;;;;;;;;;;;;;29.64;62.66;100956.66;5080469;27;69524;-38
2021/11/10 13:35:08;;;;;;;;;;;;;;;29.59;62.28;100960.78;5088737;27;66017;-39
2021/11/10 13:38:09;;;;;;;;;;;;;;;29.57;61.88;100973.69;5085720;27;69398;-39
2021/11/10 13:40:47;;;;;;;;;;;;;;;29.54;62.13;100973.28;5074066;27;65573;-38
2021/11/10 13:43:55;;;;;;;;;;;;;;;29.51;61.64;100981.81;5086379;27;68524;-38
2021/11/10 13:46:43;;;;;;;;;;;;;;;29.46;61.16;100981.59;5084526;27;67349;-40
2021/11/10 13:49:23;;;;;;;;;;;;;;;29.47;60.86;100984.06;5078728;27;68945;-38
2021/11/10 13:52:08;;;;;;;;;;;;;;;29.44;60.26;100984.50;5091273;27;65544;-39